Time;durP1;ratioP1;P1;durP2;ratioP2;P2;SDS_P1;SDS_P2;PMS_P1;PMS_P2;Temp;Humidity;BMP_temperature;BMP_pressure;BME280_temperature;BME280_humidity;BME280_pressure;Samples;Min_cycle;Max_cycle;Signal;HPM_P1;HPM_P2
2023/08/25 00:01:41;;;;;;;13.85;10.30;;;20.30;99.90;;;;;;5055564;28;20128;-82
2023/08/25 00:04:09;;;;;;;15.00;10.77;;;20.30;99.90;;;;;;5054981;28;20044;-82
2023/08/25 00:06:36;;;;;;;14.90;10.75;;;20.20;99.90;;;;;;5038238;28;20136;-82
2023/08/25 00:09:05;;;;;;;15.93;11.07;;;20.20;99.90;;;;;;5077520;28;20055;-81
2023/08/25 00:11:32;;;;;;;15.65;10.27;;;20.20;99.90;;;;;;5073632;28;20071;-81
2023/08/25 00:14:02;;;;;;;15.65;11.02;;;20.20;99.90;;;;;;5090980;28;20036;-82
2023/08/25 00:16:30;;;;;;;15.13;9.93;;;20.20;99.90;;;;;;5084408;28;20052;-82
2023/08/25 00:18:59;;;;;;;11.50;9.82;;;20.10;99.90;;;;;;5082434;28;20109;-82
2023/08/25 00:21:28;;;;;;;13.75;10.45;;;20.30;99.90;;;;;;5072354;28;20037;-80
2023/08/25 00:23:56;;;;;;;15.90;11.20;;;20.20;99.90;;;;;;5046390;28;20545;-82
2023/08/25 00:26:23;;;;;;;17.27;10.32;;;20.20;99.90;;;;;;5064347;28;20100;-82
2023/08/25 00:28:51;;;;;;;13.98;10.55;;;20.10;99.90;;;;;;5072199;28;20048;-83
2023/08/25 00:31:21;;;;;;;13.32;10.82;;;20.00;99.90;;;;;;5060434;28;20470;-82
2023/08/25 00:33:50;;;;;;;14.02;10.10;;;20.00;99.90;;;;;;5088598;28;20512;-83
2023/08/25 00:36:17;;;;;;;13.98;10.73;;;20.00;99.90;;;;;;5051408;28;20036;-81
2023/08/25 00:38:45;;;;;;;15.18;10.57;;;20.00;99.90;;;;;;5053085;28;20067;-81
2023/08/25 00:41:15;;;;;;;14.18;10.25;;;20.00;99.90;;;;;;5051853;28;20580;-82
2023/08/25 00:43:45;;;;;;;12.43;10.40;;;20.10;99.90;;;;;;5063279;28;20049;-81
2023/08/25 00:46:13;;;;;;;15.68;11.07;;;20.10;99.90;;;;;;5069387;28;20059;-83
2023/08/25 00:48:42;;;;;;;15.20;10.73;;;20.00;99.90;;;;;;5069560;28;20139;-83
2023/08/25 00:51:10;;;;;;;13.70;10.50;;;20.00;99.90;;;;;;5061930;28;20048;-81
2023/08/25 00:53:39;;;;;;;12.55;10.30;;;20.00;99.90;;;;;;5071840;28;20127;-81
2023/08/25 00:56:09;;;;;;;12.80;10.15;;;20.00;99.90;;;;;;5054971;28;20049;-82
2023/08/25 00:58:38;;;;;;;12.13;10.10;;;19.90;99.90;;;;;;5075439;28;20575;-83
2023/08/25 01:01:06;;;;;;;17.42;10.38;;;19.90;99.90;;;;;;5058916;28;22447;-82
2023/08/25 01:03:35;;;;;;;14.25;11.75;;;19.80;99.90;;;;;;5084847;28;20050;-81
2023/08/25 01:06:08;;;;;;;12.93;10.38;;;19.80;99.90;;;;;;5052124;28;20051;-82
2023/08/25 01:08:37;;;;;;;13.48;11.20;;;19.80;99.90;;;;;;5071874;28;20036;-82
2023/08/25 01:11:16;;;;;;;14.40;11.85;;;19.80;99.90;;;;;;5082597;28;20044;-82
2023/08/25 01:13:51;;;;;;;14.93;12.30;;;19.80;99.90;;;;;;5080850;28;20040;-82
2023/08/25 01:16:27;;;;;;;13.25;11.20;;;19.80;99.90;;;;;;5081793;28;20047;-83
2023/08/25 01:18:56;;;;;;;15.70;12.57;;;19.80;99.90;;;;;;5079494;28;20040;-84
2023/08/25 01:21:26;;;;;;;21.38;17.23;;;19.70;99.90;;;;;;5079277;28;20040;-83
2023/08/25 01:24:04;;;;;;;16.77;12.07;;;19.70;99.90;;;;;;5094110;28;20041;-84
2023/08/25 01:26:33;;;;;;;15.25;12.35;;;19.70;99.90;;;;;;5093571;28;20104;-83
2023/08/25 01:29:01;;;;;;;14.60;13.02;;;19.60;99.90;;;;;;5080223;28;20036;-84
2023/08/25 01:31:30;;;;;;;13.70;11.20;;;19.60;99.90;;;;;;5083943;28;20265;-82
2023/08/25 01:34:01;;;;;;;13.65;11.23;;;19.60;99.90;;;;;;5080769;28;20486;-83
2023/08/25 01:36:37;;;;;;;15.02;10.45;;;19.60;99.90;;;;;;5091486;28;20035;-83
2023/08/25 01:39:09;;;;;;;15.90;11.70;;;19.60;99.90;;;;;;5094622;28;20045;-83
2023/08/25 01:41:44;;;;;;;12.80;9.95;;;19.60;99.90;;;;;;5111317;28;20079;-84
2023/08/25 01:44:14;;;;;;;14.23;10.80;;;19.60;99.90;;;;;;5111222;28;20044;-83
2023/08/25 01:46:45;;;;;;;13.48;10.82;;;19.50;99.90;;;;;;5082683;28;20021;-83
2023/08/25 01:49:14;;;;;;;13.35;10.82;;;19.40;99.90;;;;;;5112035;28;20046;-84
2023/08/25 01:51:43;;;;;;;15.77;10.45;;;19.40;99.90;;;;;;5089425;28;20052;-84
2023/08/25 01:54:13;;;;;;;11.27;9.68;;;19.40;99.90;;;;;;5078391;28;20066;-82
2023/08/25 01:56:58;;;;;;;12.43;10.55;;;19.40;99.90;;;;;;5078800;28;20029;-84
2023/08/25 01:59:30;;;;;;;16.77;11.50;;;19.50;99.90;;;;;;5080187;28;20066;-84
2023/08/25 02:02:04;;;;;;;11.48;10.18;;;19.50;99.90;;;;;;5078972;28;20100;-83
2023/08/25 02:04:33;;;;;;;18.95;14.70;;;19.40;99.90;;;;;;5090025;28;20048;-82
2023/08/25 02:07:01;;;;;;;17.80;14.98;;;19.40;99.90;;;;;;5096131;28;20100;-83
2023/08/25 02:09:28;;;;;;;23.73;20.05;;;19.30;99.90;;;;;;5090523;28;20033;-83
2023/08/25 02:11:57;;;;;;;21.98;16.75;;;19.30;99.90;;;;;;5095586;28;20066;-83
2023/08/25 02:14:37;;;;;;;15.48;12.98;;;19.30;99.90;;;;;;5095120;28;20041;-84
2023/08/25 02:17:10;;;;;;;14.38;11.30;;;19.30;99.90;;;;;;5092138;28;20041;-85
2023/08/25 02:19:50;;;;;;;12.85;10.40;;;19.20;99.90;;;;;;5088799;28;20048;-83
2023/08/25 02:22:21;;;;;;;12.38;10.45;;;19.20;99.90;;;;;;5085194;28;20044;-84
2023/08/25 02:24:48;;;;;;;17.42;10.82;;;19.20;99.90;;;;;;5075091;28;20032;-82
2023/08/25 02:27:41;;;;;;;13.85;10.75;;;19.10;99.90;;;;;;5094402;28;20044;-84
2023/08/25 02:30:12;;;;;;;14.05;10.57;;;19.20;99.90;;;;;;5085869;28;20047;-83
2023/08/25 02:32:40;;;;;;;16.48;10.75;;;19.20;99.90;;;;;;5083284;28;20037;-83
2023/08/25 02:35:09;;;;;;;13.18;11.20;;;19.20;99.90;;;;;;5090169;28;20043;-84
2023/08/25 02:37:37;;;;;;;14.88;11.00;;;19.10;99.90;;;;;;5082803;28;20143;-83
2023/08/25 02:40:14;;;;;;;13.73;10.43;;;19.00;99.90;;;;;;5077358;28;20072;-84
2023/08/25 02:42:42;;;;;;;13.43;10.40;;;19.10;99.90;;;;;;5082296;28;20040;-87
2023/08/25 02:45:24;;;;;;;12.88;10.82;;;19.00;99.90;;;;;;5090772;28;20085;-84
2023/08/25 02:47:53;;;;;;;17.75;11.55;;;19.10;99.90;;;;;;5098205;28;20040;-83
2023/08/25 02:50:21;;;;;;;16.40;14.70;;;19.10;99.90;;;;;;5089904;28;20040;-83
2023/08/25 02:52:51;;;;;;;17.67;15.00;;;19.10;99.90;;;;;;5080855;28;20048;-84
2023/08/25 02:55:20;;;;;;;15.27;13.68;;;19.00;99.90;;;;;;5077399;28;20033;-82
2023/08/25 02:57:55;;;;;;;15.10;12.63;;;19.00;99.90;;;;;;5076930;28;20408;-83
2023/08/25 03:00:32;;;;;;;14.27;11.63;;;19.00;99.90;;;;;;5093458;28;20090;-82
2023/08/25 03:03:16;;;;;;;13.27;11.15;;;19.00;99.90;;;;;;5077035;28;20051;-82
2023/08/25 03:05:43;;;;;;;13.55;11.18;;;18.90;99.90;;;;;;5089870;28;20048;-82
2023/08/25 03:08:15;;;;;;;12.32;11.02;;;18.90;99.90;;;;;;5095849;28;20052;-85
2023/08/25 03:11:03;;;;;;;14.48;10.93;;;18.90;99.90;;;;;;5094861;28;20042;-83
2023/08/25 03:13:31;;;;;;;13.63;10.60;;;18.90;99.90;;;;;;5078289;28;20037;-83
2023/08/25 03:16:24;;;;;;;13.05;11.18;;;18.90;99.90;;;;;;5070961;28;20045;-83
2023/08/25 03:18:53;;;;;;;14.85;11.50;;;18.90;99.90;;;;;;5076016;28;20036;-83
2023/08/25 03:21:41;;;;;;;16.75;12.38;;;18.90;99.90;;;;;;5062422;28;20044;-83
2023/08/25 03:24:19;;;;;;;14.60;11.75;;;18.80;99.90;;;;;;5067506;28;20044;-83
2023/08/25 03:26:47;;;;;;;17.88;13.82;;;18.70;99.90;;;;;;5076393;28;20048;-83
2023/08/25 03:29:23;;;;;;;15.20;12.52;;;18.60;99.90;;;;;;5075340;28;20094;-83
2023/08/25 03:31:51;;;;;;;13.95;11.63;;;18.70;99.90;;;;;;5067483;28;20033;-84
2023/08/25 03:34:20;;;;;;;14.32;11.07;;;18.70;99.90;;;;;;5055068;28;20049;-83
2023/08/25 03:36:49;;;;;;;13.20;10.90;;;18.70;99.90;;;;;;5054383;28;20091;-83
2023/08/25 03:39:19;;;;;;;13.55;10.93;;;18.60;99.90;;;;;;5055175;28;20447;-83
2023/08/25 03:41:47;;;;;;;15.43;11.27;;;18.60;99.90;;;;;;5064819;28;20044;-82
2023/08/25 03:44:14;;;;;;;14.10;10.88;;;18.60;99.90;;;;;;5063015;28;20060;-82
2023/08/25 03:46:42;;;;;;;12.20;11.00;;;18.60;99.90;;;;;;5065661;28;20040;-84
2023/08/25 03:49:10;;;;;;;13.52;11.48;;;18.60;99.90;;;;;;5074489;28;20064;-84
2023/08/25 03:51:39;;;;;;;17.85;11.30;;;18.60;99.90;;;;;;5086813;28;20412;-83
2023/08/25 03:54:07;;;;;;;15.45;12.25;;;18.60;99.90;;;;;;5080858;28;20400;-83
2023/08/25 03:56:36;;;;;;;16.00;11.68;;;18.40;99.90;;;;;;5086573;28;20040;-83
2023/08/25 03:59:04;;;;;;;15.63;12.07;;;18.30;99.90;;;;;;5092053;28;20040;-84
2023/08/25 04:01:31;;;;;;;16.40;12.43;;;18.20;99.90;;;;;;5079071;28;20052;-82
2023/08/25 04:04:01;;;;;;;15.23;12.20;;;18.20;99.90;;;;;;5076805;28;20048;-83
2023/08/25 04:06:29;;;;;;;14.82;11.50;;;18.20;99.90;;;;;;5037018;28;20075;-81
2023/08/25 04:08:59;;;;;;;11.88;10.68;;;18.30;99.90;;;;;;5041698;28;20052;-83
2023/08/25 04:11:27;;;;;;;15.02;11.48;;;18.40;99.90;;;;;;5066924;28;20049;-81
2023/08/25 04:13:54;;;;;;;12.27;10.98;;;18.50;99.90;;;;;;5051363;28;20087;-82
2023/08/25 04:16:21;;;;;;;13.60;11.05;;;18.50;99.90;;;;;;5050893;28;20051;-83
2023/08/25 04:18:49;;;;;;;12.73;10.73;;;18.70;99.90;;;;;;5055854;28;20044;-83
2023/08/25 04:21:17;;;;;;;12.55;10.32;;;18.70;99.90;;;;;;5065608;28;20044;-83
2023/08/25 04:23:45;;;;;;;15.27;11.20;;;18.80;99.90;;;;;;5074517;28;20033;-83
2023/08/25 04:26:14;;;;;;;12.98;10.98;;;18.70;99.90;;;;;;5041906;28;20136;-82
2023/08/25 04:28:42;;;;;;;13.25;10.48;;;18.90;99.90;;;;;;5040146;28;20069;-83
2023/08/25 04:31:10;;;;;;;13.35;10.68;;;19.00;99.90;;;;;;5036673;28;20052;-82
2023/08/25 04:33:40;;;;;;;13.55;10.90;;;19.10;99.90;;;;;;5053290;28;20059;-84
2023/08/25 04:36:07;;;;;;;13.57;11.07;;;19.30;99.90;;;;;;5053226;28;20049;-85
2023/08/25 04:38:35;;;;;;;17.13;11.95;;;19.50;99.90;;;;;;5061504;28;20045;-82
2023/08/25 04:41:04;;;;;;;20.65;17.75;;;19.60;99.90;;;;;;5049708;28;20056;-82
2023/08/25 04:43:33;;;;;;;14.10;10.98;;;19.60;99.90;;;;;;5051434;28;20029;-81
2023/08/25 04:46:02;;;;;;;14.20;10.55;;;19.70;99.90;;;;;;5073929;28;20037;-83
2023/08/25 04:48:31;;;;;;;23.17;14.23;;;19.70;99.90;;;;;;5039037;28;20460;-82
2023/08/25 04:50:59;;;;;;;13.52;10.75;;;19.80;99.90;;;;;;5036026;28;20049;-82
2023/08/25 04:53:27;;;;;;;16.17;12.43;;;19.80;99.90;;;;;;5037483;28;20045;-82
2023/08/25 04:55:57;;;;;;;14.10;11.80;;;19.90;99.90;;;;;;5021305;28;20038;-82
2023/08/25 04:58:24;;;;;;;20.23;12.23;;;19.90;99.90;;;;;;5017852;28;20409;-85
2023/08/25 05:00:54;;;;;;;16.88;12.70;;;20.00;99.90;;;;;;5017817;28;20045;-84
2023/08/25 05:03:23;;;;;;;17.77;12.13;;;20.00;99.90;;;;;;5052771;28;20041;-83
2023/08/25 05:05:52;;;;;;;14.32;10.30;;;20.20;99.90;;;;;;5080054;28;20096;-82
2023/08/25 05:08:22;;;;;;;14.05;10.45;;;20.30;99.90;;;;;;5058931;28;20029;-85
2023/08/25 05:10:51;;;;;;;12.25;10.05;;;20.40;99.90;;;;;;5082588;28;20039;-82
2023/08/25 05:13:28;;;;;;;22.42;11.07;;;20.40;99.90;;;;;;5089967;28;20041;-82
2023/08/25 05:15:57;;;;;;;14.43;11.70;;;20.60;99.90;;;;;;5073315;28;20096;-83
2023/08/25 05:18:42;;;;;;;13.73;10.45;;;20.70;99.90;;;;;;5072650;28;20049;-82
2023/08/25 05:21:11;;;;;;;13.93;10.75;;;20.70;99.90;;;;;;5055401;28;20404;-82
2023/08/25 05:23:46;;;;;;;12.98;9.80;;;20.80;99.90;;;;;;5057160;28;20037;-81
2023/08/25 05:26:17;;;;;;;13.40;10.07;;;20.90;99.90;;;;;;5055574;28;20091;-81
2023/08/25 05:28:55;;;;;;;11.93;9.45;;;21.30;99.90;;;;;;5092178;28;20064;-80
2023/08/25 05:31:27;;;;;;;15.18;10.45;;;21.50;99.90;;;;;;5062749;28;20396;-81
2023/08/25 05:34:42;;;;;;;15.07;11.73;;;21.70;99.90;;;;;;5058800;28;20035;-83
2023/08/25 05:37:14;;;;;;;15.07;10.38;;;21.90;99.90;;;;;;5111555;28;20044;-80
2023/08/25 05:39:43;;;;;;;14.95;12.48;;;22.10;99.90;;;;;;5074785;28;20033;-80
2023/08/25 05:42:11;;;;;;;19.08;14.90;;;22.30;99.90;;;;;;5063799;28;20076;-81
2023/08/25 05:44:47;;;;;;;15.73;10.85;;;22.40;99.90;;;;;;5068609;28;20148;-82
2023/08/25 05:47:19;;;;;;;15.65;10.60;;;22.60;99.90;;;;;;5078078;28;20044;-81
2023/08/25 05:49:46;;;;;;;14.65;9.93;;;22.90;99.90;;;;;;5063159;28;20131;-78
2023/08/25 05:52:15;;;;;;;25.48;10.90;;;23.30;99.90;;;;;;5054521;28;20061;-80
2023/08/25 05:54:43;;;;;;;21.02;10.15;;;23.50;99.90;;;;;;5054058;28;20492;-79
2023/08/25 05:57:12;;;;;;;11.63;9.63;;;23.70;99.90;;;;;;5064901;28;20048;-77
2023/08/25 05:59:39;;;;;;;13.93;9.57;;;23.80;99.90;;;;;;5056536;28;20041;-78
2023/08/25 06:02:07;;;;;;;17.10;12.48;;;23.90;99.90;;;;;;5061343;28;20049;-78
2023/08/25 06:04:37;;;;;;;51.15;15.40;;;24.00;99.90;;;;;;5062968;28;20145;-77
2023/08/25 06:07:10;;;;;;;15.95;10.32;;;24.20;99.90;;;;;;5053602;28;20037;-77
2023/08/25 06:09:38;;;;;;;13.93;9.77;;;24.50;99.90;;;;;;5068634;28;20051;-78
2023/08/25 06:12:06;;;;;;;14.88;12.02;;;24.70;99.90;;;;;;5050449;28;20053;-79
2023/08/25 06:14:35;;;;;;;16.85;9.63;;;24.70;99.90;;;;;;5043501;28;20032;-78
2023/08/25 06:17:03;;;;;;;16.52;9.95;;;24.80;99.90;;;;;;5054000;28;20044;-80
2023/08/25 06:19:30;;;;;;;19.33;14.45;;;25.00;99.90;;;;;;5052576;28;20032;-78
2023/08/25 06:21:59;;;;;;;12.00;9.43;;;25.10;99.90;;;;;;5077035;28;20516;-78
2023/08/25 06:24:27;;;;;;;17.17;9.65;;;25.30;99.90;;;;;;5067449;28;20040;-79
2023/08/25 06:26:55;;;;;;;11.65;8.48;;;25.40;99.90;;;;;;5058761;28;20041;-77
2023/08/25 06:29:23;;;;;;;11.77;8.57;;;25.50;99.90;;;;;;5066210;28;20044;-75
2023/08/25 06:31:50;;;;;;;11.43;8.73;;;25.50;99.90;;;;;;5065962;28;20508;-76
2023/08/25 06:34:18;;;;;;;16.05;11.27;;;25.50;99.90;;;;;;5063117;28;20050;-79
2023/08/25 06:36:47;;;;;;;11.88;8.75;;;25.60;99.90;;;;;;5086329;28;20044;-78
2023/08/25 06:39:15;;;;;;;12.25;9.55;;;25.60;99.90;;;;;;5093327;28;20037;-79
2023/08/25 06:41:44;;;;;;;15.77;10.73;;;25.70;99.90;;;;;;5069888;28;20421;-78
2023/08/25 06:44:11;;;;;;;16.83;11.05;;;25.80;99.90;;;;;;5055645;28;20076;-82
2023/08/25 06:46:38;;;;;;;10.18;8.50;;;26.00;99.90;;;;;;5063423;28;20041;-79
2023/08/25 06:49:08;;;;;;;12.40;8.98;;;26.30;99.90;;;;;;5066906;28;20079;-82
2023/08/25 06:51:36;;;;;;;14.10;8.52;;;26.30;99.90;;;;;;5052003;28;20048;-81
2023/08/25 06:54:05;;;;;;;12.32;9.30;;;26.40;99.90;;;;;;5053024;28;20103;-78
2023/08/25 06:56:33;;;;;;;14.15;10.57;;;26.40;99.90;;;;;;5065152;28;20049;-78
2023/08/25 06:59:01;;;;;;;13.13;9.52;;;26.60;99.90;;;;;;5063928;28;20047;-80
2023/08/25 07:01:29;;;;;;;15.95;9.13;;;26.80;99.90;;;;;;5060447;28;20055;-79
2023/08/25 07:03:57;;;;;;;11.85;9.07;;;26.90;99.90;;;;;;5065341;28;20455;-79
2023/08/25 07:06:31;;;;;;;11.73;8.23;;;27.30;99.90;;;;;;5074422;28;20051;-80
2023/08/25 07:09:08;;;;;;;16.05;9.40;;;27.60;99.90;;;;;;5073529;28;20048;-79
2023/08/25 07:11:43;;;;;;;14.25;8.60;;;27.60;99.90;;;;;;5067892;28;20041;-77
2023/08/25 07:14:10;;;;;;;29.67;12.43;;;27.70;99.90;;;;;;5064673;28;20047;-79
2023/08/25 07:16:39;;;;;;;16.17;10.07;;;27.70;99.90;;;;;;5064743;28;20040;-79
2023/08/25 07:19:19;;;;;;;15.45;9.90;;;27.80;99.90;;;;;;5070387;28;20048;-83
2023/08/25 07:21:47;;;;;;;15.07;11.50;;;28.00;99.90;;;;;;5063519;28;20044;-81
2023/08/25 07:24:15;;;;;;;17.95;12.23;;;28.30;99.90;;;;;;5062526;28;20592;-81
2023/08/25 07:26:48;;;;;;;19.65;13.25;;;28.40;99.90;;;;;;5057902;28;20033;-82
2023/08/25 07:29:16;;;;;;;15.50;11.07;;;28.50;99.90;;;;;;5068737;28;20127;-80
2023/08/25 07:31:43;;;;;;;17.10;11.65;;;28.70;99.90;;;;;;5074194;28;20056;-80
2023/08/25 07:34:10;;;;;;;21.13;14.18;;;29.00;99.90;;;;;;5070784;28;20126;-84
2023/08/25 07:36:40;;;;;;;16.85;13.40;;;29.10;99.90;;;;;;5085081;28;20032;-80
2023/08/25 07:39:08;;;;;;;21.08;16.08;;;29.10;99.90;;;;;;5058726;28;20053;-84
2023/08/25 07:41:36;;;;;;;25.77;17.77;;;29.30;99.90;;;;;;5067322;28;20049;-80
2023/08/25 07:46:53;;;;;;;27.40;15.63;;;29.40;99.90;;;;;;5057151;28;20132;-81
2023/08/25 07:49:22;;;;;;;23.90;16.67;;;29.40;99.90;;;;;;5063566;28;20067;-84
2023/08/25 07:51:49;;;;;;;16.05;13.27;;;29.50;99.90;;;;;;5078459;28;20083;-81
2023/08/25 07:54:17;;;;;;;14.82;12.98;;;29.60;99.90;;;;;;5063276;28;20127;-83
2023/08/25 07:56:45;;;;;;;21.23;15.90;;;29.50;99.90;;;;;;5059953;28;20568;-82
2023/08/25 07:59:15;;;;;;;19.20;15.73;;;29.40;99.90;;;;;;5069083;28;20040;-83
2023/08/25 08:01:43;;;;;;;23.63;16.83;;;29.60;99.90;;;;;;5070235;28;20045;-84
2023/08/25 08:04:12;;;;;;;14.10;11.10;;;29.70;99.90;;;;;;5069563;28;20060;-82
2023/08/25 08:06:39;;;;;;;17.05;11.30;;;29.80;99.90;;;;;;5053820;28;20052;-81
2023/08/25 08:09:09;;;;;;;15.98;12.05;;;29.90;99.90;;;;;;5049875;28;20041;-81
2023/08/25 08:11:38;;;;;;;15.93;12.48;;;30.00;99.90;;;;;;5084088;28;20064;-81
2023/08/25 08:14:06;;;;;;;18.02;11.18;;;30.10;99.90;;;;;;5084456;28;20083;-81
2023/08/25 08:17:19;;;;;;;17.23;13.18;;;30.20;99.90;;;;;;5028706;28;20029;-79
2023/08/25 08:31:26;;;;;;;17.42;13.20;;;30.60;99.90;;;;;;4753434;23;20039;-81
2023/08/25 08:33:55;;;;;;;16.67;13.70;;;30.70;99.90;;;;;;5108579;28;20042;-80
2023/08/25 08:36:23;;;;;;;24.45;15.40;;;30.80;99.90;;;;;;5107991;28;20044;-82
2023/08/25 08:38:52;;;;;;;18.45;14.55;;;30.80;99.90;;;;;;5106511;28;20059;-78
2023/08/25 08:41:28;;;;;;;14.93;13.32;;;30.90;99.90;;;;;;5086751;28;20054;-79
2023/08/25 08:43:59;;;;;;;15.07;12.93;;;31.00;99.90;;;;;;5079621;28;20467;-79
2023/08/25 08:46:32;;;;;;;19.48;13.07;;;30.90;99.90;;;;;;5093053;28;20070;-80
2023/08/25 08:48:59;;;;;;;17.40;13.13;;;31.00;99.90;;;;;;5099178;28;20039;-79
2023/08/25 08:51:28;;;;;;;18.33;13.07;;;31.20;99.90;;;;;;5099489;28;20120;-81
2023/08/25 08:53:59;;;;;;;17.15;13.38;;;31.40;99.90;;;;;;5077318;28;20119;-80
2023/08/25 08:56:28;;;;;;;17.45;13.07;;;31.40;99.90;;;;;;5096347;28;20040;-81
2023/08/25 08:58:56;;;;;;;13.90;10.93;;;31.40;99.90;;;;;;5098034;28;20044;-81
2023/08/25 09:01:26;;;;;;;15.65;12.13;;;31.40;99.90;;;;;;5107985;28;20063;-80
2023/08/25 09:04:00;;;;;;;16.38;11.60;;;31.50;99.90;;;;;;5107762;28;20456;-82
2023/08/25 09:06:37;;;;;;;15.48;11.00;;;31.70;99.90;;;;;;5098719;28;20040;-82
2023/08/25 09:09:10;;;;;;;12.98;11.52;;;31.70;99.90;;;;;;5079410;28;20434;-81
2023/08/25 09:11:38;;;;;;;13.45;10.65;;;31.90;99.90;;;;;;5098270;28;20050;-81
2023/08/25 09:14:13;;;;;;;9.95;8.43;;;32.00;99.90;;;;;;5101742;28;20380;-80
2023/08/25 09:16:58;;;;;;;12.10;8.68;;;32.00;99.90;;;;;;5108678;28;20132;-81
2023/08/25 09:19:38;;;;;;;10.15;7.50;;;32.10;99.90;;;;;;5084679;28;20071;-80
2023/08/25 09:22:55;;;;;;;14.05;7.38;;;32.10;99.90;;;;;;5100149;28;20040;-79
2023/08/25 09:25:22;;;;;;;11.43;7.82;;;32.20;99.90;;;;;;5108115;22;20135;-82
2023/08/25 09:27:56;;;;;;;15.10;7.07;;;32.20;99.90;;;;;;5098013;28;20036;-86
2023/08/25 09:30:34;;;;;;;13.13;7.00;;;32.30;99.90;;;;;;5085620;28;20080;-84
2023/08/25 09:33:03;;;;;;;9.95;6.47;;;32.40;99.90;;;;;;5089452;28;20565;-83
2023/08/25 09:35:33;;;;;;;9.45;6.20;;;32.40;99.90;;;;;;5087753;28;20040;-84
2023/08/25 09:38:00;;;;;;;8.95;6.50;;;32.50;99.90;;;;;;5092288;28;20040;-85
2023/08/25 09:40:28;;;;;;;12.05;8.00;;;32.70;99.90;;;;;;5090727;28;20046;-82
2023/08/25 09:43:00;;;;;;;9.50;6.55;;;32.70;99.90;;;;;;5089144;28;20048;-84
2023/08/25 09:45:31;;;;;;;10.45;7.38;;;32.70;99.90;;;;;;5090294;28;20036;-84
2023/08/25 09:48:09;;;;;;;9.23;7.13;;;32.70;99.90;;;;;;5098370;28;20032;-83
2023/08/25 09:50:39;;;;;;;9.98;7.00;;;32.70;99.90;;;;;;5106023;28;20629;-84
2023/08/25 09:53:07;;;;;;;10.60;7.20;;;32.70;99.90;;;;;;5090465;28;20040;-84
2023/08/25 09:55:36;;;;;;;8.10;7.00;;;32.90;99.90;;;;;;5087657;28;20048;-84
2023/08/25 09:58:06;;;;;;;8.73;6.78;;;32.90;99.90;;;;;;5087904;28;20118;-82
2023/08/25 10:00:36;;;;;;;8.30;7.10;;;32.90;99.90;;;;;;5087603;28;20051;-84
2023/08/25 10:03:05;;;;;;;8.77;7.20;;;32.80;99.90;;;;;;5088221;28;20032;-83
2023/08/25 10:05:33;;;;;;;12.02;8.13;;;32.80;99.90;;;;;;5080716;28;20031;-84
2023/08/25 10:08:09;;;;;;;11.55;7.45;;;32.80;99.90;;;;;;5092289;28;20044;-84
2023/08/25 10:10:39;;;;;;;11.60;7.28;;;32.90;99.90;;;;;;5085155;28;20442;-88
2023/08/25 10:13:09;;;;;;;9.75;7.55;;;32.90;99.90;;;;;;5086639;28;20173;-81
2023/08/25 10:15:38;;;;;;;10.57;8.07;;;32.90;99.90;;;;;;5089149;28;20055;-84
2023/08/25 10:18:06;;;;;;;10.52;7.78;;;33.00;99.90;;;;;;5089863;28;20085;-86
2023/08/25 10:20:35;;;;;;;15.68;7.90;;;33.10;99.90;;;;;;5087513;28;20032;-84
2023/08/25 10:23:04;;;;;;;10.57;8.07;;;33.20;99.90;;;;;;5087112;28;20039;-87
2023/08/25 10:25:33;;;;;;;11.35;8.20;;;33.40;99.90;;;;;;5087083;28;20056;-84
2023/08/25 10:28:07;;;;;;;11.63;7.70;;;33.30;99.90;;;;;;5089779;28;20549;-87
2023/08/25 10:30:35;;;;;;;12.40;6.93;;;33.20;99.90;;;;;;5087953;28;20046;-83
2023/08/25 10:33:05;;;;;;;13.50;7.75;;;33.30;99.90;;;;;;5096099;28;20561;-82
2023/08/25 10:35:58;;;;;;;10.98;7.32;;;33.30;99.90;;;;;;5087381;28;20117;-84
2023/08/25 10:38:42;;;;;;;9.77;8.15;;;33.40;99.90;;;;;;5097989;28;20066;-88
2023/08/25 10:41:18;;;;;;;10.80;8.15;;;33.20;99.90;;;;;;5090235;28;20032;-87
2023/08/25 10:44:10;;;;;;;12.10;7.40;;;33.20;99.90;;;;;;5101419;28;20040;-89
2023/08/25 10:46:39;;;;;;;11.32;8.27;;;33.30;99.90;;;;;;5088785;28;20062;-82
2023/08/25 10:49:12;;;;;;;25.25;18.70;;;33.40;99.90;;;;;;5086590;28;20483;-80
2023/08/25 10:51:39;;;;;;;9.95;8.40;;;33.50;99.90;;;;;;5088277;28;20036;-80
2023/08/25 10:54:17;;;;;;;11.00;8.20;;;33.60;99.90;;;;;;5086919;28;20041;-81
2023/08/25 10:56:47;;;;;;;14.10;11.57;;;33.50;99.90;;;;;;5086054;28;20040;-82
2023/08/25 10:59:15;;;;;;;17.40;12.32;;;33.50;99.90;;;;;;5086935;28;20070;-80
2023/08/25 11:01:58;;;;;;;156.73;139.48;;;33.50;99.90;;;;;;5084879;28;20154;-80
2023/08/25 11:04:27;;;;;;;9.90;8.18;;;33.50;99.90;;;;;;5085396;28;20063;-82
2023/08/25 11:06:56;;;;;;;8.90;7.60;;;33.60;99.90;;;;;;5086465;28;20043;-79
2023/08/25 11:09:35;;;;;;;11.75;10.30;;;33.60;99.90;;;;;;5092535;28;20039;-83
2023/08/25 11:12:07;;;;;;;9.23;8.27;;;33.60;99.90;;;;;;5091721;28;20040;-80
2023/08/25 11:14:38;;;;;;;14.15;9.38;;;33.50;99.90;;;;;;5095080;28;20044;-89
2023/08/25 11:17:07;;;;;;;9.65;7.85;;;33.60;99.90;;;;;;5093535;28;20032;-85
2023/08/25 11:19:37;;;;;;;11.07;7.65;;;33.60;99.90;;;;;;5096744;28;20048;-86
2023/08/25 11:22:06;;;;;;;11.18;8.95;;;33.70;99.90;;;;;;5108363;27;20048;-83
2023/08/25 11:24:34;;;;;;;11.05;8.05;;;33.70;99.90;;;;;;5091759;28;20521;-84
2023/08/25 11:27:06;;;;;;;10.02;8.02;;;33.70;99.90;;;;;;5093703;28;20607;-84
2023/08/25 11:29:39;;;;;;;11.00;8.48;;;33.40;99.90;;;;;;5107891;28;20043;-87
2023/08/25 11:32:10;;;;;;;10.45;7.75;;;33.20;99.90;;;;;;5097747;28;20040;-85
2023/08/25 11:34:37;;;;;;;12.55;8.93;;;33.10;99.90;;;;;;5108966;28;20037;-85
2023/08/25 11:37:07;;;;;;;12.10;9.00;;;33.10;99.90;;;;;;5102095;28;20127;-87
2023/08/25 11:39:42;;;;;;;11.05;8.52;;;33.30;99.90;;;;;;5094670;28;20036;-84
2023/08/25 11:42:12;;;;;;;9.85;8.82;;;33.70;99.90;;;;;;5094343;28;20062;-84
2023/08/25 11:44:52;;;;;;;14.57;11.80;;;33.80;99.90;;;;;;5091712;28;20524;-83
2023/08/25 11:47:21;;;;;;;14.13;10.05;;;33.90;99.90;;;;;;5092511;28;20046;-86
2023/08/25 11:49:50;;;;;;;10.07;9.02;;;33.90;99.90;;;;;;5093058;28;20044;-88
2023/08/25 11:52:17;;;;;;;10.20;8.68;;;33.90;99.90;;;;;;5091603;28;20518;-86
2023/08/25 11:54:45;;;;;;;14.35;8.52;;;33.70;99.90;;;;;;5092477;28;20036;-87
2023/08/25 11:57:14;;;;;;;12.07;9.23;;;33.70;99.90;;;;;;5090887;28;20135;-83
2023/08/25 11:59:52;;;;;;;10.25;9.10;;;33.90;99.90;;;;;;5089317;28;20049;-85
2023/08/25 12:02:20;;;;;;;11.23;8.73;;;34.10;99.90;;;;;;5087155;28;20123;-83
2023/08/25 12:04:55;;;;;;;11.18;7.82;;;34.20;99.90;;;;;;5090630;28;20040;-88
2023/08/25 12:07:24;;;;;;;19.67;15.68;;;34.20;99.90;;;;;;5087578;28;20546;-86
2023/08/25 12:09:54;;;;;;;10.98;8.75;;;34.20;99.90;;;;;;5092238;28;20136;-86
2023/08/25 12:12:23;;;;;;;10.60;7.53;;;34.20;99.90;;;;;;5093513;28;20048;-88
2023/08/25 12:14:53;;;;;;;11.05;7.60;;;34.30;99.90;;;;;;5100565;28;20055;-88
2023/08/25 12:17:25;;;;;;;13.00;7.30;;;34.20;99.90;;;;;;5088909;28;20111;-86
2023/08/25 12:19:53;;;;;;;13.30;7.68;;;34.20;99.90;;;;;;5089000;28;20372;-86
2023/08/25 12:22:20;;;;;;;13.10;8.55;;;34.30;99.90;;;;;;5098656;28;20040;-83
2023/08/25 12:24:48;;;;;;;13.90;7.55;;;34.30;99.90;;;;;;5091783;28;20066;-86
2023/08/25 12:27:18;;;;;;;9.40;7.70;;;34.20;99.90;;;;;;5090649;28;20040;-85
2023/08/25 12:29:48;;;;;;;12.80;10.35;;;34.10;99.90;;;;;;5088270;28;20037;-85
2023/08/25 12:32:15;;;;;;;13.05;9.82;;;34.10;99.90;;;;;;5089951;28;20048;-84
2023/08/25 12:34:43;;;;;;;12.43;8.85;;;34.10;99.90;;;;;;5089623;28;20040;-84
2023/08/25 12:37:12;;;;;;;14.13;9.45;;;34.10;99.90;;;;;;5091621;28;20077;-91
2023/08/25 12:39:40;;;;;;;11.80;8.40;;;34.10;99.90;;;;;;5091331;28;20104;-86
2023/08/25 12:42:10;;;;;;;9.52;7.18;;;34.00;99.90;;;;;;5095217;28;20044;-91
2023/08/25 12:44:38;;;;;;;8.40;5.72;;;34.10;99.90;;;;;;5089905;28;20060;-81
2023/08/25 12:47:07;;;;;;;10.85;8.38;;;34.20;99.90;;;;;;5089395;28;20415;-83
2023/08/25 12:49:35;;;;;;;11.82;9.13;;;34.40;99.90;;;;;;5090004;28;20044;-84
2023/08/25 12:52:02;;;;;;;11.85;10.48;;;34.40;99.90;;;;;;5089103;28;20106;-83
2023/08/25 12:54:30;;;;;;;11.65;9.23;;;34.30;99.90;;;;;;5090300;28;20655;-84
2023/08/25 12:56:57;;;;;;;11.77;8.98;;;34.20;99.90;;;;;;5089443;28;20513;-84
2023/08/25 12:59:26;;;;;;;11.70;8.90;;;34.20;99.90;;;;;;5089278;28;20516;-84
2023/08/25 13:01:53;;;;;;;13.55;10.18;;;34.20;99.90;;;;;;5085636;28;20076;-84
2023/08/25 13:04:22;;;;;;;11.38;8.88;;;34.10;99.90;;;;;;5088046;28;20517;-85